Time;durP1;ratioP1;P1;durP2;ratioP2;P2;SDS_P1;SDS_P2;PMS_P1;PMS_P2;Temp;Humidity;BMP_temperature;BMP_pressure;BME280_temperature;BME280_humidity;BME280_pressure;Samples;Min_cycle;Max_cycle;Signal;HPM_P1;HPM_P2
2022/04/20 00:01:49;;;;;;;1.87;1.30;;;13.80;1.00;;;;;;5058569;28;20467;-84
2022/04/20 00:04:18;;;;;;;1.73;1.30;;;13.80;1.00;;;;;;5070688;28;20507;-84
2022/04/20 00:06:47;;;;;;;1.97;1.40;;;13.80;1.00;;;;;;5064953;28;20505;-84
2022/04/20 00:09:15;;;;;;;1.50;1.40;;;13.80;1.00;;;;;;5066328;28;21324;-84
2022/04/20 00:11:43;;;;;;;1.90;1.33;;;13.70;1.00;;;;;;5069756;28;20828;-84
2022/04/20 00:14:12;;;;;;;2.07;1.87;;;13.70;1.00;;;;;;5069515;28;20453;-84
2022/04/20 00:16:40;;;;;;;3.10;1.43;;;13.40;1.00;;;;;;5064860;28;20521;-84
2022/04/20 00:19:08;;;;;;;4.03;1.90;;;13.40;1.00;;;;;;5064226;28;20482;-84
2022/04/20 00:21:38;;;;;;;4.30;1.67;;;13.50;1.00;;;;;;5064800;28;20444;-84
2022/04/20 00:24:07;;;;;;;1.67;1.50;;;13.50;1.00;;;;;;5069893;28;20484;-84
2022/04/20 00:26:35;;;;;;;1.63;1.50;;;13.60;1.00;;;;;;5063683;28;20555;-83
2022/04/20 00:29:04;;;;;;;2.47;1.50;;;13.50;1.00;;;;;;5066797;28;20448;-83
2022/04/20 00:31:32;;;;;;;2.10;1.90;;;13.30;1.00;;;;;;5062411;28;20565;-83
2022/04/20 00:34:00;;;;;;;2.03;1.60;;;13.30;1.00;;;;;;5065320;28;20459;-83
2022/04/20 00:36:29;;;;;;;2.03;1.50;;;13.30;1.00;;;;;;5067061;28;20716;-83
2022/04/20 00:38:59;;;;;;;2.17;2.07;;;13.30;1.00;;;;;;5061051;28;20452;-83
2022/04/20 00:41:27;;;;;;;1.70;1.60;;;13.20;1.00;;;;;;5065730;28;20462;-82
2022/04/20 00:43:55;;;;;;;3.47;1.63;;;13.10;1.00;;;;;;5065025;28;20459;-84
2022/04/20 00:46:25;;;;;;;1.73;1.60;;;13.20;1.00;;;;;;5061450;28;20854;-83
2022/04/20 00:48:54;;;;;;;3.00;1.60;;;13.30;1.00;;;;;;5061947;28;20940;-84
2022/04/20 00:51:23;;;;;;;1.93;1.70;;;13.30;1.00;;;;;;5067203;28;20480;-83
2022/04/20 00:53:51;;;;;;;2.33;1.60;;;13.30;1.00;;;;;;5065236;28;20459;-85
2022/04/20 00:56:20;;;;;;;1.93;1.60;;;13.30;1.00;;;;;;5068877;28;20476;-84
2022/04/20 00:58:49;;;;;;;4.17;2.00;;;13.30;1.00;;;;;;5070427;28;20471;-84
2022/04/20 01:01:17;;;;;;;2.03;1.83;;;13.40;1.00;;;;;;5065500;28;20439;-85
2022/04/20 01:03:46;;;;;;;1.80;1.70;;;13.30;1.00;;;;;;5060049;28;20452;-85
2022/04/20 01:06:14;;;;;;;2.07;1.90;;;13.20;1.00;;;;;;5064002;28;20475;-87
2022/04/20 01:08:44;;;;;;;3.80;1.70;;;13.20;1.00;;;;;;5067901;28;20470;-86
2022/04/20 01:11:12;;;;;;;1.90;1.80;;;13.20;1.00;;;;;;5056898;28;20887;-85
2022/04/20 01:13:42;;;;;;;2.80;2.07;;;13.10;1.00;;;;;;5065721;28;20972;-85
2022/04/20 01:16:10;;;;;;;1.90;1.80;;;13.20;1.00;;;;;;5060937;28;20468;-86
2022/04/20 01:18:44;;;;;;;5.00;1.80;;;13.10;1.00;;;;;;5064948;28;20843;-85
2022/04/20 01:21:14;;;;;;;2.47;2.10;;;13.10;1.00;;;;;;5061586;28;20463;-87
2022/04/20 01:23:42;;;;;;;3.77;2.40;;;13.10;1.00;;;;;;5066828;28;20468;-84
2022/04/20 01:26:11;;;;;;;2.60;1.77;;;13.10;1.00;;;;;;5059423;28;20491;-83
2022/04/20 01:28:42;;;;;;;2.13;2.03;;;13.00;1.00;;;;;;5068812;28;20465;-84
2022/04/20 01:31:14;;;;;;;2.03;1.80;;;13.00;1.00;;;;;;5065516;28;20988;-84
2022/04/20 01:33:43;;;;;;;2.47;1.87;;;13.20;1.00;;;;;;5063721;28;20551;-85
2022/04/20 01:36:13;;;;;;;3.87;1.97;;;12.90;1.00;;;;;;5053050;28;20535;-85
2022/04/20 01:38:41;;;;;;;2.63;2.43;;;12.90;1.00;;;;;;5064640;28;21285;-85
2022/04/20 01:41:09;;;;;;;2.23;2.13;;;12.80;1.00;;;;;;5061908;28;20448;-85
2022/04/20 01:43:37;;;;;;;3.03;2.33;;;12.60;1.00;;;;;;5063022;28;20464;-84
2022/04/20 01:46:06;;;;;;;1.70;1.60;;;12.70;1.00;;;;;;5064142;28;20463;-84
2022/04/20 01:48:34;;;;;;;2.17;1.97;;;12.70;1.00;;;;;;5065086;28;20469;-84
2022/04/20 01:53:49;;;;;;;4.63;3.10;;;12.60;1.00;;;;;;5061592;28;20451;-83
2022/04/20 01:56:17;;;;;;;2.53;2.33;;;12.60;1.00;;;;;;5065286;28;20472;-83
2022/04/20 01:58:45;;;;;;;1.90;1.73;;;12.70;1.00;;;;;;5060793;28;20491;-83
2022/04/20 02:04:06;;;;;;;3.33;2.33;;;12.60;1.00;;;;;;5006494;28;20454;-81
2022/04/20 02:06:34;;;;;;;2.50;2.33;;;12.60;1.00;;;;;;5059410;28;20471;-83
2022/04/20 02:09:04;;;;;;;2.10;2.00;;;12.50;1.00;;;;;;5065179;28;20455;-83
2022/04/20 02:11:32;;;;;;;2.20;2.00;;;12.60;1.00;;;;;;5058992;28;20482;-83
2022/04/20 02:14:00;;;;;;;3.43;2.30;;;12.50;1.00;;;;;;5062638;28;20855;-83
2022/04/20 02:16:28;;;;;;;2.00;1.87;;;12.50;1.00;;;;;;5066512;28;20515;-83
2022/04/20 02:18:57;;;;;;;2.10;2.00;;;12.30;1.00;;;;;;5063662;28;20467;-83
2022/04/20 02:21:26;;;;;;;3.00;2.80;;;12.30;1.00;;;;;;5065584;28;20439;-83
2022/04/20 02:23:54;;;;;;;2.30;2.03;;;12.40;1.00;;;;;;5062684;28;20459;-83
2022/04/20 02:26:24;;;;;;;3.07;1.93;;;12.50;1.00;;;;;;5060709;28;20490;-84
2022/04/20 02:28:52;;;;;;;1.73;1.63;;;12.40;1.00;;;;;;5065463;28;20448;-84
2022/04/20 02:31:20;;;;;;;2.53;2.33;;;12.40;1.00;;;;;;5059018;28;20553;-84
2022/04/20 02:33:49;;;;;;;2.40;2.20;;;12.30;1.00;;;;;;5062093;28;20452;-83
2022/04/20 02:36:17;;;;;;;2.67;2.33;;;12.30;1.00;;;;;;5065810;28;20878;-83
2022/04/20 02:38:45;;;;;;;2.10;2.00;;;12.30;1.00;;;;;;5063492;28;20504;-82
2022/04/20 02:41:14;;;;;;;2.80;1.80;;;12.20;1.00;;;;;;5063299;28;20443;-83
2022/04/20 02:43:44;;;;;;;2.13;2.03;;;12.20;1.00;;;;;;5065325;28;20457;-84
2022/04/20 02:46:12;;;;;;;5.63;2.20;;;12.20;1.00;;;;;;5062963;28;20471;-82
2022/04/20 02:48:42;;;;;;;2.20;2.00;;;12.10;1.00;;;;;;5063577;28;20482;-85
2022/04/20 02:51:10;;;;;;;2.30;2.20;;;12.10;1.00;;;;;;5056501;28;20488;-85
2022/04/20 02:53:38;;;;;;;2.47;2.13;;;12.30;1.00;;;;;;5062534;28;20451;-85
2022/04/20 02:56:06;;;;;;;2.10;1.87;;;12.00;1.00;;;;;;5058208;28;20478;-85
2022/04/20 02:58:35;;;;;;;2.70;2.50;;;12.00;1.00;;;;;;5065592;28;20460;-85
2022/04/20 03:01:06;;;;;;;2.37;2.20;;;12.00;1.00;;;;;;5058912;28;20454;-83
2022/04/20 03:03:34;;;;;;;3.17;2.10;;;12.00;1.00;;;;;;5091001;28;20554;-84
2022/04/20 03:06:03;;;;;;;2.33;2.23;;;12.00;1.00;;;;;;5059633;28;20488;-84
2022/04/20 03:08:31;;;;;;;2.50;2.30;;;11.90;1.00;;;;;;5061484;28;20535;-85
2022/04/20 03:10:59;;;;;;;2.30;2.10;;;11.90;1.00;;;;;;5066481;28;20451;-83
2022/04/20 03:13:28;;;;;;;3.10;2.90;;;11.90;1.00;;;;;;5070973;28;20451;-84
2022/04/20 03:15:56;;;;;;;3.77;2.47;;;11.90;1.00;;;;;;5066008;28;21012;-83
2022/04/20 03:18:31;;;;;;;2.60;2.40;;;11.90;1.00;;;;;;5067792;28;20440;-84
2022/04/20 03:21:00;;;;;;;3.20;2.77;;;11.90;1.00;;;;;;5069536;28;20454;-85
2022/04/20 03:23:29;;;;;;;2.80;2.60;;;11.90;1.00;;;;;;5073160;28;20820;-85
2022/04/20 03:25:57;;;;;;;2.57;2.20;;;11.90;1.00;;;;;;5059860;28;20890;-85
2022/04/20 03:28:25;;;;;;;3.00;2.23;;;11.80;1.00;;;;;;5065483;28;20531;-85
2022/04/20 03:30:54;;;;;;;2.33;2.13;;;11.80;1.00;;;;;;5060401;28;20465;-85
2022/04/20 03:33:23;;;;;;;2.50;2.30;;;11.70;1.00;;;;;;5061611;28;20447;-85
2022/04/20 03:35:53;;;;;;;2.33;2.20;;;11.70;1.00;;;;;;5072554;28;21018;-84
2022/04/20 03:38:21;;;;;;;2.67;1.93;;;11.70;1.00;;;;;;5072327;28;20460;-85
2022/04/20 03:40:50;;;;;;;2.47;2.17;;;11.70;1.00;;;;;;5071396;28;20457;-86
2022/04/20 03:43:18;;;;;;;1.80;1.70;;;11.70;1.00;;;;;;5065707;28;20468;-84
2022/04/20 03:45:47;;;;;;;2.40;2.20;;;11.70;1.00;;;;;;5061932;28;20457;-84
2022/04/20 03:48:15;;;;;;;2.03;1.93;;;11.70;1.00;;;;;;5067558;28;20463;-83
2022/04/20 03:50:43;;;;;;;2.03;1.80;;;11.70;1.00;;;;;;5066303;28;20451;-85
2022/04/20 03:53:13;;;;;;;2.83;2.53;;;11.70;1.00;;;;;;5063267;28;20465;-83
2022/04/20 03:55:43;;;;;;;3.23;2.00;;;11.60;1.00;;;;;;5060974;28;20460;-84
2022/04/20 03:58:11;;;;;;;2.30;1.60;;;11.60;1.00;;;;;;5067426;28;20443;-84
2022/04/20 04:00:40;;;;;;;2.30;2.00;;;11.60;1.00;;;;;;5067025;28;20458;-82
2022/04/20 04:03:08;;;;;;;2.20;1.80;;;11.60;1.00;;;;;;5068383;28;20447;-85
2022/04/20 04:05:37;;;;;;;2.47;2.27;;;11.60;1.00;;;;;;5065231;28;20456;-82
2022/04/20 04:08:06;;;;;;;3.20;2.30;;;11.60;1.00;;;;;;5101108;28;20456;-83
2022/04/20 04:10:35;;;;;;;2.50;2.10;;;11.60;1.00;;;;;;5070279;28;20455;-84
2022/04/20 04:13:04;;;;;;;2.33;2.13;;;11.50;1.00;;;;;;5068121;28;21044;-84
2022/04/20 04:15:33;;;;;;;2.47;2.20;;;11.50;1.00;;;;;;5063229;28;20459;-86
2022/04/20 04:18:02;;;;;;;1.87;1.77;;;11.50;1.00;;;;;;5070940;28;21003;-85
2022/04/20 04:20:30;;;;;;;2.07;1.87;;;11.80;1.00;;;;;;5066110;28;20447;-86
2022/04/20 04:22:58;;;;;;;2.23;2.00;;;11.50;1.00;;;;;;5068444;28;20456;-84
2022/04/20 04:25:27;;;;;;;2.50;2.30;;;11.60;1.00;;;;;;5061296;28;20459;-85
2022/04/20 04:27:57;;;;;;;2.07;1.93;;;11.60;1.00;;;;;;5066005;28;20484;-81
2022/04/20 04:30:27;;;;;;;2.53;2.30;;;11.50;1.00;;;;;;5063507;28;20526;-84
2022/04/20 04:32:55;;;;;;;3.43;3.13;;;11.50;1.00;;;;;;5067328;28;20468;-84
2022/04/20 04:35:24;;;;;;;2.40;2.20;;;11.40;1.00;;;;;;5067736;28;21049;-84
2022/04/20 04:37:52;;;;;;;1.80;1.70;;;11.40;1.00;;;;;;5068171;28;20995;-85
2022/04/20 04:40:21;;;;;;;2.17;1.70;;;11.40;1.00;;;;;;5065190;28;20534;-82
2022/04/20 04:42:49;;;;;;;2.80;2.60;;;11.40;1.00;;;;;;5059272;28;20454;-80
2022/04/20 04:50:50;;;;;;;2.40;2.20;;;11.60;1.00;;;;;;5065860;28;20458;-85
2022/04/20 04:53:19;;;;;;;4.80;2.23;;;11.60;1.00;;;;;;5069532;28;20466;-81
2022/04/20 04:55:47;;;;;;;3.70;2.30;;;11.50;1.00;;;;;;5097471;28;20851;-83
2022/04/20 04:58:15;;;;;;;3.47;2.67;;;11.30;1.00;;;;;;5067893;28;21195;-84
2022/04/20 05:00:45;;;;;;;2.20;1.80;;;11.60;1.00;;;;;;5059955;28;20888;-84
2022/04/20 05:03:14;;;;;;;3.67;2.30;;;11.30;1.00;;;;;;5070783;28;20450;-80
2022/04/20 05:05:42;;;;;;;3.17;2.43;;;11.20;1.00;;;;;;5060299;28;20454;-85
2022/04/20 05:08:11;;;;;;;2.30;2.10;;;11.20;1.00;;;;;;5063519;28;20465;-83
2022/04/20 05:10:39;;;;;;;2.20;2.00;;;11.20;1.00;;;;;;5099616;28;20198;-82
2022/04/20 05:13:08;;;;;;;2.13;2.03;;;11.20;1.00;;;;;;5065124;28;20491;-85
2022/04/20 05:15:36;;;;;;;3.87;1.70;;;11.20;1.00;;;;;;5062038;28;20463;-82
2022/04/20 05:18:06;;;;;;;2.37;2.17;;;11.20;1.00;;;;;;5054986;28;20456;-85
2022/04/20 05:20:35;;;;;;;2.23;2.03;;;11.20;1.00;;;;;;5069975;28;20799;-83
2022/04/20 05:23:03;;;;;;;1.70;1.60;;;11.20;1.00;;;;;;5069543;28;20454;-80
2022/04/20 05:25:31;;;;;;;2.30;1.90;;;11.20;1.00;;;;;;5068319;28;20459;-81
2022/04/20 05:28:06;;;;;;;1.93;1.73;;;11.20;1.00;;;;;;5070422;28;20451;-82
2022/04/20 05:30:34;;;;;;;1.67;1.57;;;11.30;1.00;;;;;;5071078;28;20450;-79
2022/04/20 05:33:02;;;;;;;2.23;2.10;;;11.30;1.00;;;;;;5069420;28;20542;-82
2022/04/20 05:35:32;;;;;;;2.00;1.80;;;11.20;1.00;;;;;;5067081;28;20474;-82
2022/04/20 05:43:32;;;;;;;2.00;1.80;;;11.30;1.00;;;;;;5072473;28;20451;-84
2022/04/20 05:46:00;;;;;;;1.87;1.77;;;11.30;1.00;;;;;;5068081;28;20470;-84
2022/04/20 05:48:29;;;;;;;3.50;1.60;;;11.40;1.00;;;;;;5072862;28;20464;-83
2022/04/20 05:50:58;;;;;;;2.42;2.10;;;11.30;1.00;;;;;;5068790;28;20441;-83
2022/04/20 05:53:27;;;;;;;1.70;1.60;;;11.40;1.00;;;;;;5067659;28;20227;-83
2022/04/20 05:55:55;;;;;;;1.60;1.50;;;11.50;1.00;;;;;;5063996;28;20452;-81
2022/04/20 05:58:23;;;;;;;1.80;1.70;;;11.80;1.00;;;;;;5070076;28;20503;-83
2022/04/20 06:00:51;;;;;;;1.67;1.57;;;11.60;1.00;;;;;;5070491;28;20533;-83
2022/04/20 06:03:20;;;;;;;1.57;1.47;;;11.70;1.00;;;;;;5071944;28;20466;-82
2022/04/20 06:05:48;;;;;;;4.00;1.90;;;11.80;1.00;;;;;;5071301;28;20450;-82
2022/04/20 06:08:17;;;;;;;3.47;1.73;;;11.90;1.00;;;;;;5073141;28;20938;-81
2022/04/20 06:10:46;;;;;;;2.30;2.10;;;11.90;1.00;;;;;;5069671;28;20438;-82
2022/04/20 06:13:14;;;;;;;2.00;1.80;;;11.60;1.00;;;;;;5067672;28;20208;-82
2022/04/20 06:15:42;;;;;;;1.80;1.50;;;11.90;1.00;;;;;;5055773;28;20526;-82
2022/04/20 06:18:10;;;;;;;1.83;1.70;;;11.70;1.00;;;;;;5069703;28;20553;-83
2022/04/20 06:20:40;;;;;;;2.25;1.80;;;11.70;1.00;;;;;;5066041;28;20439;-79
2022/04/20 06:23:08;;;;;;;2.00;1.60;;;11.90;1.00;;;;;;5068818;28;20196;-80
2022/04/20 06:25:42;;;;;;;1.53;1.43;;;12.10;1.00;;;;;;5059433;28;20470;-79
2022/04/20 06:28:11;;;;;;;2.47;2.20;;;12.40;1.00;;;;;;5065919;28;20972;-82
2022/04/20 06:30:39;;;;;;;2.00;1.80;;;12.50;1.00;;;;;;5059649;28;20521;-80
2022/04/20 06:33:07;;;;;;;1.50;1.40;;;12.60;1.00;;;;;;5067450;28;21297;-79
2022/04/20 06:35:36;;;;;;;2.10;1.80;;;12.80;1.00;;;;;;5061756;28;20489;-79
2022/04/20 06:38:04;;;;;;;1.57;1.47;;;12.90;1.00;;;;;;5068356;28;20467;-80
2022/04/20 06:40:32;;;;;;;1.63;1.53;;;13.00;1.00;;;;;;5065011;28;20465;-81
2022/04/20 06:43:02;;;;;;;2.03;1.40;;;13.00;1.00;;;;;;5067176;28;20448;-81
2022/04/20 06:45:30;;;;;;;1.50;1.30;;;13.10;1.00;;;;;;5064392;28;20468;-80
2022/04/20 06:48:00;;;;;;;2.85;2.00;;;13.20;1.00;;;;;;5061776;28;20447;-82
2022/04/20 06:50:28;;;;;;;3.00;1.93;;;13.30;1.00;;;;;;5061330;28;20800;-81
2022/04/20 06:58:41;;;;;;;1.80;1.70;;;13.60;1.00;;;;;;5069003;28;20466;-83
2022/04/20 07:01:09;;;;;;;1.90;1.53;;;13.50;1.00;;;;;;5067027;28;20455;-84
2022/04/20 07:03:39;;;;;;;1.80;1.70;;;13.50;1.00;;;;;;5071054;28;20455;-83
2022/04/20 07:06:07;;;;;;;1.83;1.40;;;13.50;1.00;;;;;;5070266;28;20555;-81
2022/04/20 07:08:36;;;;;;;1.60;1.50;;;13.20;1.00;;;;;;5071000;28;20497;-80
2022/04/20 07:11:05;;;;;;;2.27;2.00;;;13.50;1.00;;;;;;5070820;28;20459;-82
2022/04/20 07:13:35;;;;;;;1.60;1.50;;;13.50;1.00;;;;;;5071663;28;20492;-82
2022/04/20 07:16:04;;;;;;;1.60;1.50;;;13.60;1.00;;;;;;5070391;28;20479;-82
2022/04/20 07:18:32;;;;;;;1.67;1.57;;;13.90;1.00;;;;;;5075199;28;20448;-82
2022/04/20 07:21:02;;;;;;;2.07;1.67;;;14.10;1.00;;;;;;5071688;28;20460;-85
2022/04/20 07:23:30;;;;;;;2.33;2.13;;;14.20;1.00;;;;;;5058551;28;20444;-82
2022/04/20 07:25:58;;;;;;;2.37;1.50;;;14.30;1.00;;;;;;5070511;28;20455;-82
2022/04/20 07:28:26;;;;;;;2.03;1.70;;;14.40;1.00;;;;;;5057927;28;20445;-82
2022/04/20 07:30:56;;;;;;;3.70;2.60;;;14.40;1.00;;;;;;5071293;28;20445;-82
2022/04/20 07:33:24;;;;;;;3.07;2.07;;;14.60;1.00;;;;;;5066673;28;20542;-81
2022/04/20 07:35:52;;;;;;;1.70;1.60;;;15.00;1.00;;;;;;5070569;28;20976;-80
2022/04/20 07:38:24;;;;;;;1.93;1.80;;;15.20;1.00;;;;;;5070447;28;20448;-81
2022/04/20 07:40:52;;;;;;;7.00;2.13;;;15.30;1.00;;;;;;5072418;28;20452;-79
2022/04/20 07:43:21;;;;;;;1.97;1.77;;;15.40;1.00;;;;;;5072916;28;20544;-82
2022/04/20 07:45:49;;;;;;;1.87;1.67;;;15.50;1.00;;;;;;5071992;28;20453;-83
2022/04/20 07:48:19;;;;;;;1.93;1.83;;;15.60;1.00;;;;;;5073934;28;20506;-83
2022/04/20 07:50:48;;;;;;;2.70;1.90;;;15.70;1.00;;;;;;5071883;28;20458;-81
2022/04/20 07:53:17;;;;;;;2.73;2.30;;;15.80;1.00;;;;;;5065965;28;20546;-82
2022/04/20 07:55:47;;;;;;;2.23;2.03;;;15.70;1.00;;;;;;5070359;28;20459;-81
2022/04/20 07:58:16;;;;;;;2.57;2.27;;;15.60;1.00;;;;;;5087191;28;20449;-81
2022/04/20 08:00:45;;;;;;;2.43;2.23;;;15.60;1.00;;;;;;5073697;28;20482;-83
2022/04/20 08:03:15;;;;;;;2.47;2.20;;;15.60;1.00;;;;;;5076743;28;20552;-82
2022/04/20 08:05:50;;;;;;;2.33;2.10;;;15.60;1.00;;;;;;5065501;28;20453;-82
2022/04/20 08:08:19;;;;;;;4.93;2.27;;;15.60;1.00;;;;;;5072898;28;20453;-82
2022/04/20 08:10:48;;;;;;;2.47;2.07;;;15.50;1.00;;;;;;5076730;28;20450;-81
2022/04/20 08:16:02;;;;;;;2.47;2.20;;;15.30;1.00;;;;;;5065541;28;20470;-81
2022/04/20 08:18:31;;;;;;;2.10;2.00;;;15.40;1.00;;;;;;5076904;28;20457;-81
2022/04/20 08:21:01;;;;;;;1.50;1.40;;;15.20;1.00;;;;;;5074896;28;20461;-82
2022/04/20 08:23:32;;;;;;;1.87;1.77;;;15.20;1.00;;;;;;5074244;28;20462;-81
2022/04/20 08:26:01;;;;;;;2.50;1.80;;;15.20;1.00;;;;;;5075079;28;20554;-82
2022/04/20 08:28:30;;;;;;;2.90;2.20;;;15.20;1.00;;;;;;5078558;28;20453;-81
2022/04/20 08:30:59;;;;;;;2.93;2.43;;;15.20;1.00;;;;;;5074696;28;21281;-81
2022/04/20 08:33:27;;;;;;;1.80;1.70;;;15.30;1.00;;;;;;5075327;28;20454;-80
2022/04/20 08:35:56;;;;;;;1.90;1.80;;;15.00;1.00;;;;;;5073961;28;20485;-82
2022/04/20 08:38:25;;;;;;;2.20;2.10;;;15.00;1.00;;;;;;5076138;28;20467;-84
2022/04/20 08:40:55;;;;;;;2.60;1.83;;;15.10;1.00;;;;;;5075803;28;20471;-82
2022/04/20 08:43:25;;;;;;;2.10;1.90;;;14.90;1.00;;;;;;5076425;28;20511;-82
2022/04/20 08:45:54;;;;;;;2.30;2.20;;;14.50;1.00;;;;;;5075799;28;20448;-81
2022/04/20 08:48:22;;;;;;;2.07;1.87;;;14.60;1.00;;;;;;5075702;28;21042;-82
2022/04/20 08:50:54;;;;;;;2.23;2.13;;;14.60;1.00;;;;;;5072082;28;20496;-82
2022/04/20 08:53:22;;;;;;;4.50;1.80;;;14.70;1.00;;;;;;5082283;28;20479;-82
2022/04/20 08:57:15;;;;;;;2.87;1.97;;;14.90;1.00;;;;;;5078165;28;20477;-81
2022/04/20 08:58:44;;;;;;;2.50;1.70;;;14.50;1.00;;;;;;5080232;28;21161;-86
2022/04/20 09:01:14;;;;;;;2.70;2.03;;;14.70;1.00;;;;;;5073259;28;20461;-80
2022/04/20 09:03:44;;;;;;;2.13;2.03;;;14.50;1.00;;;;;;5075992;28;20449;-81
2022/04/20 09:06:13;;;;;;;2.50;1.87;;;14.60;1.00;;;;;;5074349;28;20477;-83
2022/04/20 09:08:44;;;;;;;2.00;1.90;;;14.90;1.00;;;;;;5075323;28;20455;-81
2022/04/20 09:11:14;;;;;;;3.20;2.20;;;15.00;1.00;;;;;;5075085;28;20454;-81
2022/04/20 09:13:44;;;;;;;2.20;2.00;;;15.00;1.00;;;;;;5075644;28;20434;-81
2022/04/20 09:16:14;;;;;;;2.77;2.57;;;15.20;1.00;;;;;;5072917;28;20485;-81
2022/04/20 09:18:43;;;;;;;2.30;2.10;;;15.20;1.00;;;;;;5074490;28;20453;-82
2022/04/20 09:21:12;;;;;;;2.40;2.07;;;15.00;1.00;;;;;;5074945;28;20458;-81
2022/04/20 09:23:41;;;;;;;2.70;2.50;;;14.70;1.00;;;;;;5075308;28;20458;-82
2022/04/20 09:26:11;;;;;;;1.83;1.73;;;14.10;1.00;;;;;;5074536;28;20477;-81
2022/04/20 09:28:44;;;;;;;2.60;2.40;;;14.10;1.00;;;;;;5067748;28;20461;-81
2022/04/20 09:31:13;;;;;;;1.87;1.70;;;14.40;1.00;;;;;;5075470;28;20452;-82
2022/04/20 09:33:43;;;;;;;1.70;1.60;;;14.70;1.00;;;;;;5074562;28;20552;-82
2022/04/20 09:36:13;;;;;;;2.60;2.00;;;15.00;1.00;;;;;;5072075;28;20898;-82
2022/04/20 09:39:03;;;;;;;3.40;1.70;;;15.20;1.00;;;;;;5074499;28;20438;-82
2022/04/20 09:41:32;;;;;;;1.83;1.67;;;15.30;1.00;;;;;;5071966;28;20957;-84
2022/04/20 09:44:11;;;;;;;2.87;1.90;;;15.30;1.00;;;;;;5077484;28;20946;-81
2022/04/20 09:49:57;;;;;;;2.10;1.67;;;15.40;1.00;;;;;;5071322;28;20455;-81
2022/04/20 09:52:25;;;;;;;2.37;1.80;;;15.40;1.00;;;;;;5076049;28;20540;-81
2022/04/20 09:54:56;;;;;;;1.73;1.60;;;15.50;1.00;;;;;;5075012;28;21092;-82
2022/04/20 09:57:25;;;;;;;1.60;1.50;;;15.70;1.00;;;;;;5075722;28;20467;-81
2022/04/20 09:59:59;;;;;;;3.47;1.60;;;15.80;1.00;;;;;;5072682;28;20463;-85
2022/04/20 10:02:48;;;;;;;1.50;1.40;;;15.80;1.00;;;;;;5097166;28;20504;-81
2022/04/20 10:05:18;;;;;;;1.73;1.27;;;16.00;1.00;;;;;;5074824;28;20532;-80
2022/04/20 10:07:51;;;;;;;1.80;1.70;;;15.90;1.00;;;;;;5075127;28;20549;-82
2022/04/20 10:10:20;;;;;;;1.97;1.57;;;15.40;1.00;;;;;;5078236;28;20605;-80
2022/04/20 10:12:54;;;;;;;1.87;1.77;;;15.20;1.00;;;;;;5066077;28;20457;-82
2022/04/20 10:18:21;;;;;;;1.67;1.57;;;15.20;1.00;;;;;;5070395;28;20457;-80
2022/04/20 10:20:51;;;;;;;1.93;1.73;;;15.50;1.00;;;;;;5067457;28;20449;-81
2022/04/20 10:23:21;;;;;;;1.80;1.70;;;15.40;1.00;;;;;;5068292;28;20533;-82
2022/04/20 10:25:51;;;;;;;2.03;1.40;;;15.30;1.00;;;;;;5074423;28;20497;-82
2022/04/20 10:28:28;;;;;;;2.20;2.00;;;15.50;1.00;;;;;;5074944;28;20940;-82
2022/04/20 10:31:20;;;;;;;1.80;1.70;;;15.70;1.00;;;;;;5075768;28;20450;-81
2022/04/20 10:33:49;;;;;;;2.37;2.17;;;15.80;1.00;;;;;;5075034;28;20447;-80
2022/04/20 10:36:28;;;;;;;2.13;1.90;;;15.80;1.00;;;;;;5073982;28;20894;-81
2022/04/20 10:39:19;;;;;;;1.87;1.50;;;15.80;1.00;;;;;;5072956;28;20950;-80
2022/04/20 10:42:18;;;;;;;1.70;1.60;;;16.00;1.00;;;;;;5071418;28;20454;-84
2022/04/20 10:44:58;;;;;;;1.73;1.63;;;16.00;1.00;;;;;;5068812;28;20844;-82
2022/04/20 10:47:29;;;;;;;2.37;2.00;;;15.60;1.00;;;;;;5065324;28;20495;-82
2022/04/20 10:50:13;;;;;;;2.70;1.90;;;15.50;1.00;;;;;;5071767;28;20508;-81
2022/04/20 10:52:44;;;;;;;1.83;1.60;;;14.80;1.00;;;;;;5064988;28;20450;-82
2022/04/20 10:55:12;;;;;;;2.63;2.00;;;14.90;1.00;;;;;;5068415;28;20477;-82
2022/04/20 10:57:42;;;;;;;1.60;1.50;;;14.80;1.00;;;;;;5071746;28;20991;-81
2022/04/20 11:00:36;;;;;;;2.20;2.10;;;15.00;1.00;;;;;;5071419;28;20446;-83
2022/04/20 11:03:10;;;;;;;1.90;1.77;;;15.30;1.00;;;;;;5068273;28;20446;-82
2022/04/20 11:05:52;;;;;;;1.73;1.63;;;15.20;1.00;;;;;;5069511;28;20461;-81
2022/04/20 11:08:22;;;;;;;2.40;1.60;;;15.50;1.00;;;;;;5070430;28;20544;-82
2022/04/20 11:19:34;;;;;;;2.13;1.50;;;16.30;1.00;;;;;;5067421;28;20461;-81
2022/04/20 11:22:08;;;;;;;1.70;1.60;;;16.20;1.00;;;;;;5056829;28;20466;-80
2022/04/20 11:24:43;;;;;;;1.70;1.60;;;16.30;1.00;;;;;;5063764;28;20449;-81
2022/04/20 11:27:11;;;;;;;1.60;1.50;;;16.30;1.00;;;;;;5063499;28;20474;-81
2022/04/20 11:29:43;;;;;;;1.87;1.30;;;16.50;1.00;;;;;;5066992;28;20462;-81
2022/04/20 11:32:14;;;;;;;1.80;1.70;;;16.60;1.00;;;;;;5067229;28;20475;-81
2022/04/20 11:34:44;;;;;;;1.70;1.60;;;16.60;1.00;;;;;;5098909;28;20441;-81
2022/04/20 11:37:12;;;;;;;1.83;1.73;;;16.70;1.00;;;;;;5072451;28;20470;-81
2022/04/20 11:39:40;;;;;;;2.17;1.87;;;16.70;1.00;;;;;;5063424;28;20482;-81
2022/04/20 11:42:11;;;;;;;2.90;1.57;;;16.70;1.00;;;;;;5065337;28;20454;-81
2022/04/20 11:44:41;;;;;;;2.43;1.80;;;16.70;1.00;;;;;;5061720;28;20458;-80
2022/04/20 11:47:11;;;;;;;2.23;1.80;;;16.50;1.00;;;;;;5068169;28;21202;-80
2022/04/20 11:49:41;;;;;;;1.60;1.50;;;16.60;1.00;;;;;;5068073;28;20453;-80
2022/04/20 11:52:14;;;;;;;1.40;1.30;;;16.70;1.00;;;;;;5072594;28;20521;-81
2022/04/20 11:54:45;;;;;;;1.53;1.43;;;16.80;1.00;;;;;;5069960;28;20538;-80
2022/04/20 11:57:16;;;;;;;3.30;2.07;;;17.00;1.00;;;;;;5069470;28;20488;-80
2022/04/20 11:59:45;;;;;;;2.27;2.13;;;17.00;1.00;;;;;;5065760;28;20459;-80
2022/04/20 12:02:14;;;;;;;2.90;1.47;;;16.80;1.00;;;;;;5068657;28;20451;-81
2022/04/20 12:04:43;;;;;;;2.00;1.60;;;16.70;1.00;;;;;;5070107;28;20471;-81
2022/04/20 12:07:14;;;;;;;2.00;1.90;;;16.80;1.00;;;;;;5070337;28;20534;-80
2022/04/20 12:09:46;;;;;;;1.50;1.40;;;16.90;1.00;;;;;;5071826;28;20446;-80
2022/04/20 12:12:16;;;;;;;1.67;1.50;;;16.80;1.00;;;;;;5071244;28;20442;-80
2022/04/20 12:14:46;;;;;;;1.40;1.30;;;17.00;1.00;;;;;;5068633;28;20462;-80
2022/04/20 12:17:20;;;;;;;1.43;1.33;;;17.20;1.00;;;;;;5074259;28;21052;-80
2022/04/20 12:19:50;;;;;;;2.47;1.73;;;17.20;1.00;;;;;;5074022;28;20508;-81
2022/04/20 12:22:21;;;;;;;1.57;1.20;;;17.30;1.00;;;;;;5074860;28;20447;-81
2022/04/20 12:25:05;;;;;;;2.13;1.73;;;17.30;1.00;;;;;;5072672;28;20458;-80
2022/04/20 12:27:50;;;;;;;2.13;1.93;;;17.30;1.00;;;;;;5067895;28;20473;-78
2022/04/20 12:30:36;;;;;;;3.63;1.90;;;17.00;1.00;;;;;;5070630;28;20471;-78
2022/04/20 12:33:05;;;;;;;2.80;1.93;;;16.80;1.00;;;;;;5069502;28;20510;-80
2022/04/20 12:35:34;;;;;;;2.50;1.73;;;16.80;1.00;;;;;;5068851;28;20443;-78
2022/04/20 12:38:07;;;;;;;3.00;1.90;;;17.10;1.00;;;;;;5069717;28;20540;-78
2022/04/20 12:40:36;;;;;;;1.67;1.57;;;17.20;1.00;;;;;;5069164;28;20447;-79
2022/04/20 12:43:07;;;;;;;1.80;1.70;;;17.30;1.00;;;;;;5064817;28;21066;-80
2022/04/20 12:45:35;;;;;;;2.03;1.33;;;17.20;1.00;;;;;;5061885;28;20479;-79
2022/04/20 12:48:04;;;;;;;1.93;1.53;;;17.40;1.00;;;;;;5062083;28;20467;-78
2022/04/20 12:50:37;;;;;;;2.40;1.77;;;17.50;1.00;;;;;;5062457;28;20528;-78
2022/04/20 12:53:07;;;;;;;1.70;1.60;;;17.60;1.00;;;;;;5064345;28;20545;-79
2022/04/20 12:55:41;;;;;;;2.70;1.90;;;17.70;1.00;;;;;;5062820;28;20466;-80
2022/04/20 13:03:48;;;;;;;2.73;2.00;;;17.90;1.00;;;;;;5063328;28;20456;-79
2022/04/20 13:06:17;;;;;;;2.33;1.87;;;17.90;1.00;;;;;;5056239;28;21632;-80
2022/04/20 13:08:46;;;;;;;1.90;1.50;;;17.90;1.00;;;;;;5066344;28;20452;-80
2022/04/20 13:11:16;;;;;;;1.87;1.77;;;17.90;1.00;;;;;;5064360;28;20445;-79
2022/04/20 13:14:05;;;;;;;1.50;1.40;;;17.80;1.00;;;;;;5069868;28;20493;-79
2022/04/20 13:16:33;;;;;;;1.90;1.80;;;17.80;1.00;;;;;;5066468;28;20564;-81
2022/04/20 13:19:01;;;;;;;1.60;1.37;;;17.90;1.00;;;;;;5061009;28;20466;-80
2022/04/20 13:21:30;;;;;;;2.00;1.90;;;18.00;1.00;;;;;;5061570;28;20479;-79
2022/04/20 13:24:00;;;;;;;3.70;1.40;;;18.10;1.00;;;;;;5065699;28;20461;-82
2022/04/20 13:29:14;;;;;;;1.93;1.83;;;18.10;1.00;;;;;;5074468;28;20449;-85
2022/04/20 13:31:44;;;;;;;2.20;2.00;;;17.90;1.00;;;;;;5069537;28;20461;-82
2022/04/20 13:34:12;;;;;;;2.20;2.00;;;17.90;1.00;;;;;;5068084;28;20949;-81
2022/04/20 13:36:41;;;;;;;2.10;1.77;;;18.00;1.00;;;;;;5070368;28;20485;-81
2022/04/20 13:39:11;;;;;;;1.50;1.40;;;18.00;1.00;;;;;;5064874;28;20900;-82
2022/04/20 13:41:39;;;;;;;1.50;1.40;;;18.10;1.00;;;;;;5065117;28;20434;-83
2022/04/20 13:44:08;;;;;;;1.63;1.53;;;18.10;1.00;;;;;;5064995;28;20444;-82
2022/04/20 13:46:36;;;;;;;2.30;1.80;;;18.10;1.00;;;;;;5067077;28;20491;-82
2022/04/20 13:49:04;;;;;;;1.70;1.60;;;18.10;1.00;;;;;;5060886;28;20457;-82
2022/04/20 13:51:33;;;;;;;2.77;1.60;;;18.10;1.00;;;;;;5067670;28;21027;-84
2022/04/20 13:54:04;;;;;;;1.67;1.57;;;18.20;1.00;;;;;;5067194;28;20442;-81
2022/04/20 13:56:33;;;;;;;1.60;1.50;;;18.10;1.00;;;;;;5066745;28;20574;-81
2022/04/20 13:59:02;;;;;;;1.70;1.60;;;18.10;1.00;;;;;;5062905;28;20826;-82
2022/04/20 14:01:30;;;;;;;1.40;1.30;;;18.20;1.00;;;;;;5065909;28;20451;-80